WIOO/PNK METAR and TAF weather

Enter ICAO airport designator
Station Type Date Time Source
WIOO METAR 2019/06/17 06:00 UTC NOAA

WIOO 170600Z 00000KT 9999 BKN012 32/24 Q1009 NOSIG


Station Type Date Time Source
WIOO Decoded METAR 2019/06/17 06:00 UTC NOAA

Pontianak / Supadio, Indonesia (WIOO) 00-09S 109-24E 3M
Jun 17, 2019 - 02:00 AM EDT / 2019.06.17 0600 UTC
Wind: Calm:0
Visibility: greater than 7 mile(s):0
Sky conditions: mostly cloudy
Temperature: 89 F (32 C)
Heat index: 98.4 F (36.9 C):1
Dew Point: 75 F (24 C)
Relative Humidity: 62%
Pressure (altimeter): 29.80 in. Hg (1009 hPa)
ob: WIOO 170600Z 00000KT 9999 BKN012 32/24 Q1009 NOSIG
cycle: 6

Station Type Date Time Source
WIOO TAF 2014/03/26 00:51 UTC NOAA

TAF TAF WIOO 252300Z 2600/2624 10002KT 7000 SCT011
BECMG 2601/2603 08005KT 9999
TEMPO 2607/2610 15010KT 3000

Example: see airport list